Have a Safe July 4th! 

Flight Track Log - Related Links

Times and Time Zones

All times are in EDT time to prevent confusion due to time zone crossing. See the GGN7279 flight status page for this flight to view local times or setup timezone preferences in your user account.

Time Position Orientation Groundspeed Altitude Reporting Facility
EDT Latitude Longitude Course Direction KTS MPH feet Rate Location/Type
Thu 01:42:14 PM 43.1039 -77.6925 264° West 129 148 1,500  Level Cleveland Center
Thu 01:43:06 PM 43.1006 -77.7344 264° West 197 227 3,000 1,947 Climbing Cleveland Center
Thu 01:44:08 PM 43.1144 -77.8172 283° West 191 220 5,200 1,872 Climbing Cleveland Center
Thu 01:45:11 PM 43.1242 -77.8906 280° West 192 221 6,900 1,680 Climbing Cleveland Center
Thu 01:46:13 PM 43.1350 -77.9647 281° West 195 224 8,700 1,742 Climbing Cleveland Center
Thu 01:47:15 PM 43.1475 -78.0378 283° West 196 226 10,500 1,597 Climbing Cleveland Center
Thu 01:48:17 PM 43.1569 -78.1100 280° West 196 226 12,000 677 Climbing Cleveland Center
Thu 01:49:19 PM 43.1714 -78.2114 281° West 227 261 11,900  Descending Cleveland Center
Thu 01:50:21 PM 43.1844 -78.2989 282° West 233 268 12,000 48 Climbing Cleveland Center
Thu 01:51:23 PM 43.1975 -78.3892 281° West 237 273 12,000  Level Cleveland Center
Thu 01:52:25 PM 43.2106 -78.4756 282° West 237 273 12,000  Level Cleveland Center
Thu 01:53:28 PM 43.2189 -78.5661 277° West 238 274 12,000  Level Cleveland Center
Thu 01:54:30 PM 43.2289 -78.6528 279° West 236 272 12,000  Level Cleveland Center
Thu 01:55:32 PM 43.2397 -78.7572 278° West 234 269 12,000 -146 Level Cleveland Center
Thu 01:57:55 PM 43.2500 -78.9500 274° West 230 265 11,500 -384 Descending Toronto Center
Thu 01:58:55 PM 43.2667 -79.0333 285° West 240 276 10,700 -850 Descending Toronto Center
Thu 01:59:55 PM 43.2667 -79.1333 270° West 240 276 9,800 -850 Descending Toronto Center
Thu 02:00:55 PM 43.2833 -79.2167 285° West 240 276 9,000 -400 Descending Toronto Center
Thu 02:01:55 PM 43.2833 -79.2833 270° West 230 265 9,000 -250 Level Toronto Center
Thu 02:02:55 PM 43.3333 -79.3500 316° Northwest 240 276 8,500 -500 Descending Toronto Center
Thu 02:03:55 PM 43.4000 -79.3833 340° North 270 311 8,000 -250 Descending Toronto Center
Thu 02:04:55 PM 43.4667 -79.4000 350° North 260 299 8,000  Level Toronto Center
Thu 02:05:55 PM 43.5333 -79.4500 331° Northwest 250 288 8,000 -400 Level Toronto Center
Thu 02:06:55 PM 43.5833 -79.5167 316° Northwest 230 265 7,200 -1,100 Descending Toronto Center
Thu 02:07:55 PM 43.5500 -79.5833 235° Southwest 210 242 5,800 -1,500 Descending Toronto Center
Thu 02:08:55 PM 43.5167 -79.6333 227° Southwest 220 253 4,200 -1,400 Descending Toronto Center
Thu 02:09:55 PM 43.5000 -79.7000 251° West 210 242 3,000 -600 Descending Toronto Center
Thu 02:10:55 PM 43.5500 -79.7500 324° Northwest 190 219 3,000 -250 Level Toronto Center
Thu 02:11:55 PM 43.5833 -79.7000 47° Northeast 180 207 2,500 -700 Descending Toronto Center
Thu 02:12:55 PM 43.6167 -79.6500 47° Northeast 160 184 1,600 -800 Descending Toronto Center
Thu 02:13:55 PM 43.6333 -79.6167 55° Northeast 130 150 900 -550 Descending Toronto Center
Thu 02:14:55 PM 43.6667 -79.5833 36° Northeast 110 127 500 -400 Descending Toronto Center

Login

Don't have an account? Register now (free) for customized features, flight alerts, and more!